createdAt,value
2024-05-09T00:00:42.635Z,91.8135
2024-05-09T00:01:43.811Z,91.9261
2024-05-09T00:02:44.679Z,91.8190
2024-05-09T00:03:46.072Z,91.1437
2024-05-09T00:04:47.088Z,90.8815
2024-05-09T00:05:47.792Z,91.0692
2024-05-09T00:06:48.457Z,91.2532
2024-05-09T00:07:49.009Z,91.0982
2024-05-09T00:08:49.670Z,91.3726
2024-05-09T00:09:51.355Z,91.4305
2024-05-09T00:10:52.078Z,91.7632
2024-05-09T00:11:52.775Z,91.8502
2024-05-09T00:12:53.258Z,91.6991
2024-05-09T00:13:53.969Z,91.8590
2024-05-09T00:14:54.490Z,91.7751
2024-05-09T00:15:56.359Z,91.7113
2024-05-09T00:16:57.170Z,91.7125
2024-05-09T00:17:57.997Z,92.0256
2024-05-09T00:18:58.936Z,91.9945
2024-05-09T00:19:59.703Z,91.9088
2024-05-09T00:21:00.594Z,91.9918
2024-05-09T00:22:01.483Z,91.8959
2024-05-09T00:23:02.221Z,91.8770
2024-05-09T00:24:03.478Z,91.9344
2024-05-09T00:25:04.194Z,92.2393
2024-05-09T00:26:04.877Z,92.3311
2024-05-09T00:27:05.775Z,92.1935
2024-05-09T00:28:09.055Z,92.2435
2024-05-09T00:29:10.055Z,92.3104
2024-05-09T00:30:14.509Z,92.2319
2024-05-09T00:31:18.346Z,92.1370
2024-05-09T00:32:19.480Z,92.3802
2024-05-09T00:33:20.855Z,92.5783
2024-05-09T00:34:22.148Z,92.4208
2024-05-09T00:35:23.623Z,92.6360
2024-05-09T00:36:24.765Z,92.7044
2024-05-09T00:37:25.841Z,92.8142
2024-05-09T00:38:26.989Z,92.8905
2024-05-09T00:39:28.163Z,92.9284
2024-05-09T00:40:35.766Z,92.9369
2024-05-09T00:41:36.639Z,93.0272
2024-05-09T00:42:38.805Z,92.9485
2024-05-09T00:43:40.062Z,93.0376
2024-05-09T00:44:41.318Z,93.1249
2024-05-09T00:45:42.607Z,93.3565
2024-05-09T00:46:43.905Z,93.2799
2024-05-09T00:47:45.201Z,93.1896
2024-05-09T00:48:46.552Z,93.1627
2024-05-09T00:49:47.664Z,93.2165
2024-05-09T00:50:48.854Z,93.1426
2024-05-09T00:51:49.824Z,93.2424
2024-05-09T00:52:50.892Z,93.2403
2024-05-09T00:53:51.856Z,93.3309
2024-05-09T00:54:52.736Z,93.3419
2024-05-09T00:55:53.581Z,93.2284
2024-05-09T00:56:54.258Z,93.0675
2024-05-09T00:57:55.082Z,92.8319
2024-05-09T00:58:55.841Z,92.8072
2024-05-09T00:59:56.906Z,92.9778
2024-05-09T01:00:57.508Z,92.7529
2024-05-09T01:01:58.295Z,92.5957
2024-05-09T01:02:59.132Z,92.5692
2024-05-09T01:03:59.834Z,92.5432
2024-05-09T01:05:00.562Z,92.6180
2024-05-09T01:06:01.178Z,92.6583
2024-05-09T01:07:01.811Z,92.7483
2024-05-09T01:08:02.453Z,92.6986
2024-05-09T01:09:03.026Z,92.6317
2024-05-09T01:10:05.578Z,92.5856
2024-05-09T01:11:07.881Z,92.3049
2024-05-09T01:12:08.606Z,92.3030
2024-05-09T01:13:09.158Z,92.1813
2024-05-09T01:14:09.616Z,92.0861
2024-05-09T01:15:10.028Z,91.9924
2024-05-09T01:16:10.431Z,91.8764
2024-05-09T01:17:10.867Z,91.9182
2024-05-09T01:18:12.408Z,91.9698
2024-05-09T01:19:14.390Z,91.9329
2024-05-09T01:20:20.216Z,91.8798
2024-05-09T01:21:21.526Z,91.7650
2024-05-09T01:22:21.816Z,91.4516
2024-05-09T01:23:22.131Z,91.4775
2024-05-09T01:24:22.517Z,91.4015
2024-05-09T01:25:22.818Z,91.2062
2024-05-09T01:26:23.053Z,91.3463
2024-05-09T01:27:23.596Z,91.5108
2024-05-09T01:28:23.847Z,91.4080
2024-05-09T01:29:24.233Z,91.4611
2024-05-09T01:30:31.836Z,91.4614
2024-05-09T01:31:31.165Z,91.3463
2024-05-09T01:32:31.627Z,91.4287
2024-05-09T01:33:33.273Z,91.2233
2024-05-09T01:34:33.960Z,91.1882
2024-05-09T01:35:34.286Z,91.2551
2024-05-09T01:36:34.682Z,91.1681
2024-05-09T01:37:34.833Z,91.3457
2024-05-09T01:38:35.263Z,91.6088
2024-05-09T01:39:35.730Z,91.4400
2024-05-09T01:40:38.930Z,91.2572
2024-05-09T01:41:40.860Z,91.1043
2024-05-09T01:42:41.076Z,91.0381
2024-05-09T01:43:41.887Z,90.8904
2024-05-09T01:44:42.136Z,91.1134
2024-05-09T01:45:42.415Z,91.1492
2024-05-09T01:46:42.698Z,91.0552
2024-05-09T01:47:43.159Z,91.1113
2024-05-09T01:48:44.558Z,91.0625
2024-05-09T01:49:44.989Z,91.1373
2024-05-09T01:50:45.494Z,91.1714
2024-05-09T01:51:46.023Z,91.0140
2024-05-09T01:52:46.277Z,91.1308
2024-05-09T01:53:46.505Z,91.0188
2024-05-09T01:54:46.697Z,90.9239
2024-05-09T01:55:46.979Z,90.8669
2024-05-09T01:56:47.337Z,91.0561
2024-05-09T01:57:47.599Z,90.9923
2024-05-09T01:58:47.781Z,91.1077
2024-05-09T01:59:48.008Z,91.1977
2024-05-09T02:00:48.319Z,91.2194
2024-05-09T02:01:56.632Z,91.2242
2024-05-09T02:02:54.946Z,90.8092
2024-05-09T02:03:55.412Z,90.8348
2024-05-09T02:04:56.158Z,90.8678
2024-05-09T02:05:56.517Z,90.9963
2024-05-09T02:06:57.132Z,91.0652
2024-05-09T02:07:57.392Z,91.1717
2024-05-09T02:08:57.546Z,90.9453
2024-05-09T02:09:58.110Z,90.9697
2024-05-09T02:10:58.532Z,90.9743
2024-05-09T02:11:59.086Z,90.9975
2024-05-09T02:12:59.334Z,90.9703
2024-05-09T02:13:59.700Z,90.9426
2024-05-09T02:14:59.934Z,91.0658
2024-05-09T02:16:00.217Z,90.7375
2024-05-09T02:17:00.556Z,90.9554
2024-05-09T02:18:01.121Z,90.9151
2024-05-09T02:19:01.739Z,90.9129
2024-05-09T02:20:02.115Z,90.8617
2024-05-09T02:21:02.720Z,91.0698
2024-05-09T02:22:02.950Z,90.7997
2024-05-09T02:23:03.305Z,90.7649
2024-05-09T02:24:03.627Z,90.8519
2024-05-09T02:25:03.841Z,90.6612
2024-05-09T02:26:04.497Z,90.8058
2024-05-09T02:27:04.741Z,90.8882
2024-05-09T02:28:05.080Z,90.5403
2024-05-09T02:29:05.393Z,90.6227
2024-05-09T02:30:15.150Z,90.5766
2024-05-09T02:31:13.510Z,90.7988
2024-05-09T02:32:14.104Z,91.0790
2024-05-09T02:33:15.002Z,90.7518
2024-05-09T02:34:16.310Z,90.7460
2024-05-09T02:35:16.604Z,90.9505
2024-05-09T02:36:16.771Z,90.9010
2024-05-09T02:37:16.937Z,90.8330
2024-05-09T02:38:18.221Z,90.9123
2024-05-09T02:39:18.438Z,90.7527
2024-05-09T02:40:25.665Z,90.5818
2024-05-09T02:41:25.977Z,90.7149
2024-05-09T02:42:27.204Z,90.8074
2024-05-09T02:43:27.464Z,90.7445
2024-05-09T02:44:27.763Z,90.8214
2024-05-09T02:45:28.065Z,90.9877
2024-05-09T02:46:28.287Z,91.0405
2024-05-09T02:47:28.808Z,90.7561
2024-05-09T02:48:29.149Z,91.0195
2024-05-09T02:49:29.573Z,91.1055
2024-05-09T02:50:37.036Z,91.1299
2024-05-09T02:51:36.306Z,91.2407
2024-05-09T02:52:36.596Z,91.2093
2024-05-09T02:53:36.903Z,91.1516
2024-05-09T02:54:37.241Z,91.1632
2024-05-09T02:55:37.533Z,91.1797
2024-05-09T02:56:37.991Z,91.2187
2024-05-09T02:57:38.413Z,91.5248
2024-05-09T02:58:38.795Z,91.3341
2024-05-09T02:59:39.078Z,91.3057
2024-05-09T03:00:41.666Z,91.3768
2024-05-09T03:01:45.743Z,91.3704
2024-05-09T03:02:46.164Z,91.3219
2024-05-09T03:03:46.559Z,91.5450
2024-05-09T03:04:47.024Z,91.4131
2024-05-09T03:05:47.495Z,91.3231
2024-05-09T03:06:47.945Z,91.4025
2024-05-09T03:07:48.124Z,91.5950
2024-05-09T03:08:48.420Z,91.5428
2024-05-09T03:09:48.606Z,91.6472
2024-05-09T03:10:49.097Z,91.7693
2024-05-09T03:11:49.510Z,91.6646
2024-05-09T03:12:49.814Z,91.7672
2024-05-09T03:13:50.024Z,91.8312
2024-05-09T03:14:50.297Z,91.6664
2024-05-09T03:15:50.722Z,91.8511
2024-05-09T03:16:51.066Z,91.7665
2024-05-09T03:17:51.696Z,91.9567
2024-05-09T03:18:52.075Z,91.7324
2024-05-09T03:19:52.413Z,91.7479
2024-05-09T03:20:52.766Z,91.6747
2024-05-09T03:21:52.943Z,91.6204
2024-05-09T03:22:56.323Z,91.8566
2024-05-09T03:23:57.513Z,91.7092
2024-05-09T03:24:57.731Z,91.6298
2024-05-09T03:25:58.057Z,91.5898
2024-05-09T03:26:58.441Z,91.4531
2024-05-09T03:27:58.686Z,91.5148
2024-05-09T03:28:58.969Z,91.3460
2024-05-09T03:29:59.157Z,91.5758
2024-05-09T03:30:59.321Z,91.5938
2024-05-09T03:31:59.732Z,91.6033
2024-05-09T03:33:00.341Z,91.6487
2024-05-09T03:34:00.827Z,91.5611
2024-05-09T03:35:01.087Z,91.3173
2024-05-09T03:36:01.249Z,91.3018
2024-05-09T03:37:01.531Z,91.3793
2024-05-09T03:38:01.777Z,91.4919
2024-05-09T03:39:02.097Z,91.4900
2024-05-09T03:40:02.875Z,91.4257
2024-05-09T03:41:03.271Z,91.3378
2024-05-09T03:42:03.612Z,91.2413
2024-05-09T03:43:03.830Z,91.3588
2024-05-09T03:44:04.083Z,91.3933
2024-05-09T03:45:04.328Z,91.5773
2024-05-09T03:46:04.515Z,91.7574
2024-05-09T03:47:04.785Z,91.5254
2024-05-09T03:48:05.522Z,91.3127
2024-05-09T03:49:05.893Z,91.4168
2024-05-09T03:50:11.962Z,91.3906
2024-05-09T03:51:12.509Z,91.3710
2024-05-09T03:52:12.809Z,91.5096
2024-05-09T03:53:13.184Z,91.5377
2024-05-09T03:54:13.528Z,91.5380
2024-05-09T03:55:13.725Z,91.7406
2024-05-09T03:56:14.020Z,91.9030
2024-05-09T03:57:14.213Z,91.7333
2024-05-09T03:58:14.564Z,91.5715
2024-05-09T03:59:14.896Z,91.6457
2024-05-09T04:00:21.950Z,91.5523
2024-05-09T04:01:21.414Z,91.8383
2024-05-09T04:02:21.811Z,91.9158
2024-05-09T04:03:22.565Z,91.8245
2024-05-09T04:04:22.959Z,91.8007
2024-05-09T04:05:23.192Z,91.6420
2024-05-09T04:06:23.418Z,91.6719
2024-05-09T04:07:23.631Z,91.3506
2024-05-09T04:08:23.901Z,91.6133
2024-05-09T04:09:24.166Z,91.6417
2024-05-09T04:10:31.181Z,91.5465
2024-05-09T04:11:30.467Z,91.4830
2024-05-09T04:12:30.844Z,91.2898
2024-05-09T04:13:31.020Z,91.4025
2024-05-09T04:14:31.319Z,91.2953
2024-05-09T04:15:31.866Z,91.4620
2024-05-09T04:16:32.344Z,91.6927
2024-05-09T04:17:33.006Z,91.7614
2024-05-09T04:18:33.451Z,91.2111
2024-05-09T04:19:33.722Z,91.2361
2024-05-09T04:20:39.007Z,91.3228
2024-05-09T04:21:40.760Z,91.5795
2024-05-09T04:22:52.957Z,91.3876
2024-05-09T04:23:53.162Z,91.3146
2024-05-09T04:24:53.295Z,91.0491
2024-05-09T04:26:05.285Z,91.2116
2024-05-09T04:27:05.389Z,91.2252
2024-05-09T04:28:17.367Z,90.9036
2024-05-09T04:29:17.494Z,90.9679
2024-05-09T04:30:26.221Z,91.0469
2024-05-09T04:31:24.540Z,91.0909
2024-05-09T04:32:25.467Z,91.0460
2024-05-09T04:33:25.802Z,90.8702
2024-05-09T04:34:26.121Z,90.9215
2024-05-09T04:35:26.372Z,91.1760
2024-05-09T04:36:26.568Z,90.9187
2024-05-09T04:37:26.670Z,90.6484
2024-05-09T04:38:26.672Z,90.5177
2024-05-09T04:39:26.817Z,90.5794
2024-05-09T04:40:33.396Z,90.9514
2024-05-09T04:41:34.028Z,90.9499
2024-05-09T04:42:34.175Z,91.1650
2024-05-09T04:43:34.337Z,91.1739
2024-05-09T04:44:34.607Z,91.0378
2024-05-09T04:45:35.072Z,90.8162
2024-05-09T04:46:35.479Z,90.8263
2024-05-09T04:47:35.861Z,91.0637
2024-05-09T04:48:36.221Z,90.7338
2024-05-09T04:49:37.504Z,90.4952
2024-05-09T04:50:39.307Z,90.7073
2024-05-09T04:51:40.356Z,90.8171
2024-05-09T04:52:40.510Z,90.4314
2024-05-09T04:53:40.936Z,90.7268
2024-05-09T04:54:41.258Z,90.7161
2024-05-09T04:55:41.438Z,90.7091
2024-05-09T04:56:41.562Z,90.7915
2024-05-09T04:57:41.754Z,90.7149
2024-05-09T04:58:42.128Z,90.7118
2024-05-09T04:59:42.284Z,90.8772
2024-05-09T05:00:42.613Z,91.0689
2024-05-09T05:01:42.779Z,91.1601
2024-05-09T05:02:43.229Z,90.9563
2024-05-09T05:03:43.596Z,91.0475
2024-05-09T05:04:43.985Z,90.8742
2024-05-09T05:05:45.441Z,90.6755
2024-05-09T05:06:46.348Z,90.6831
2024-05-09T05:07:46.504Z,90.6358
2024-05-09T05:08:46.718Z,90.8009
2024-05-09T05:09:46.847Z,90.7478
2024-05-09T05:10:47.710Z,91.1415
2024-05-09T05:11:48.619Z,90.9685
2024-05-09T05:12:48.763Z,91.0515
2024-05-09T05:13:48.852Z,91.1470
2024-05-09T05:14:49.511Z,90.9715
2024-05-09T05:15:50.536Z,90.8943
2024-05-09T05:16:50.568Z,90.7826
2024-05-09T05:18:02.753Z,90.7805
2024-05-09T05:19:02.946Z,90.9426
2024-05-09T05:20:04.707Z,90.7750
2024-05-09T05:21:05.032Z,90.7973
2024-05-09T05:22:05.129Z,90.9081
2024-05-09T05:23:05.205Z,90.8180
2024-05-09T05:24:05.285Z,91.0585
2024-05-09T05:25:05.361Z,90.9239
2024-05-09T05:26:17.309Z,90.7586
2024-05-09T05:27:17.330Z,91.0326
2024-05-09T05:28:29.270Z,90.9061
2024-05-09T05:29:29.398Z,90.9099
2024-05-09T05:30:34.443Z,90.6728
2024-05-09T05:31:36.467Z,90.7283
2024-05-09T05:32:36.583Z,90.7347
2024-05-09T05:33:36.944Z,90.5830
2024-05-09T05:34:37.044Z,90.5794
2024-05-09T05:35:37.196Z,90.6929
2024-05-09T05:36:37.299Z,90.8272
2024-05-09T05:37:37.374Z,91.0948
2024-05-09T05:38:37.523Z,90.9606
2024-05-09T05:39:37.532Z,90.9773
2024-05-09T05:40:38.764Z,90.9837
2024-05-09T05:41:40.077Z,90.7216
2024-05-09T05:42:40.131Z,90.9386
2024-05-09T05:43:40.315Z,90.5660
2024-05-09T05:44:40.452Z,90.5068
2024-05-09T05:45:40.562Z,90.6114
2024-05-09T05:46:41.659Z,90.5226
2024-05-09T05:47:42.139Z,90.3535
2024-05-09T05:48:42.495Z,90.3719
2024-05-09T05:49:42.683Z,90.3654
2024-05-09T05:50:42.855Z,90.3432
2024-05-09T05:51:43.176Z,90.4640
2024-05-09T05:52:43.440Z,90.4509
2024-05-09T05:53:43.555Z,90.4851
2024-05-09T05:54:43.705Z,90.6563
2024-05-09T05:55:43.890Z,90.6838
2024-05-09T05:56:44.141Z,90.8464
2024-05-09T05:57:44.367Z,90.5226
2024-05-09T05:58:44.575Z,90.4015
2024-05-09T05:59:44.800Z,90.2452
2024-05-09T06:00:45.044Z,90.2238
2024-05-09T06:01:45.472Z,90.2330
2024-05-09T06:02:45.868Z,90.6746
2024-05-09T06:03:47.335Z,90.9117
2024-05-09T06:04:47.646Z,90.6203
2024-05-09T06:05:47.866Z,90.6133
2024-05-09T06:06:48.115Z,90.4955
2024-05-09T06:07:49.287Z,90.5592
2024-05-09T06:08:49.388Z,90.6734
2024-05-09T06:09:50.652Z,90.5766
2024-05-09T06:10:50.805Z,90.7433
2024-05-09T06:11:52.151Z,90.5217
2024-05-09T06:12:52.130Z,90.0337
2024-05-09T06:13:52.236Z,90.0526
2024-05-09T06:14:52.407Z,90.0282
2024-05-09T06:15:52.454Z,90.2916
2024-05-09T06:16:54.102Z,90.4912
2024-05-09T06:17:55.752Z,90.3429
2024-05-09T06:18:56.567Z,90.3554
2024-05-09T06:19:56.615Z,90.3819
2024-05-09T06:20:56.851Z,89.8485
2024-05-09T06:21:56.919Z,89.7270
2024-05-09T06:22:56.926Z,89.4978
2024-05-09T06:23:56.984Z,89.2177
2024-05-09T06:25:08.814Z,89.2078
2024-05-09T06:26:20.716Z,89.0130
2024-05-09T06:27:32.577Z,88.8530
2024-05-09T06:28:32.560Z,88.8252
2024-05-09T06:29:44.384Z,88.5969
2024-05-09T06:30:44.341Z,88.3531
2024-05-09T06:31:59.495Z,88.3853
2024-05-09T06:33:00.366Z,87.8010
2024-05-09T06:34:12.536Z,87.4372
2024-05-09T06:35:12.602Z,87.3732
2024-05-09T06:36:13.521Z,87.8358
2024-05-09T06:37:25.362Z,87.2160
2024-05-09T06:38:37.268Z,87.1046
2024-05-09T06:39:37.183Z,87.0835
2024-05-09T06:40:49.034Z,86.4233
2024-05-09T06:42:00.823Z,87.1623
2024-05-09T06:43:12.682Z,87.0242
2024-05-09T06:44:12.695Z,86.5364
2024-05-09T06:45:12.716Z,86.7039
2024-05-09T06:46:24.525Z,86.6056
2024-05-09T06:47:36.534Z,86.8983
2024-05-09T06:48:36.767Z,86.7573
2024-05-09T06:49:36.815Z,86.7451
2024-05-09T06:50:38.347Z,86.8125
2024-05-09T06:51:39.594Z,86.4152
2024-05-09T06:52:41.517Z,86.0050
2024-05-09T06:53:41.486Z,85.9889
2024-05-09T06:54:41.577Z,85.8512
2024-05-09T06:55:41.428Z,85.8421
2024-05-09T06:56:53.211Z,85.7783
2024-05-09T06:58:04.938Z,86.3297
2024-05-09T06:59:16.743Z,86.3325
2024-05-09T07:00:35.599Z,85.8915
2024-05-09T07:01:35.287Z,84.9775
2024-05-09T07:02:47.066Z,85.7613
2024-05-09T07:03:47.135Z,86.8626
2024-05-09T07:04:47.241Z,86.8629
2024-05-09T07:05:48.569Z,85.8146
2024-05-09T07:06:50.937Z,85.5079
2024-05-09T07:07:50.923Z,85.3242
2024-05-09T07:08:52.448Z,85.0034
2024-05-09T07:09:52.626Z,85.1752
2024-05-09T07:10:52.784Z,85.4707
2024-05-09T07:11:52.984Z,85.6089
2024-05-09T07:12:53.234Z,85.2924
2024-05-09T07:13:53.207Z,85.1890
2024-05-09T07:14:53.583Z,85.2683
2024-05-09T07:15:53.516Z,85.2708
2024-05-09T07:17:05.404Z,85.4617
2024-05-09T07:18:05.497Z,85.0455
2024-05-09T07:19:05.686Z,85.1160
2024-05-09T07:20:08.963Z,85.4023
2024-05-09T07:21:09.366Z,85.3590
2024-05-09T07:22:21.156Z,85.3435
2024-05-09T07:23:32.905Z,85.6158
2024-05-09T07:24:44.778Z,85.1097
2024-05-09T07:25:56.587Z,85.2623
2024-05-09T07:27:08.266Z,85.3641
2024-05-09T07:28:19.960Z,85.1581
2024-05-09T07:29:32.989Z,84.6507
2024-05-09T07:30:35.171Z,84.2939
2024-05-09T07:31:35.215Z,84.3323
2024-05-09T07:32:47.096Z,84.1604
2024-05-09T07:33:47.148Z,84.4340
2024-05-09T07:34:47.192Z,84.2878
2024-05-09T07:35:58.933Z,84.0085
2024-05-09T07:37:10.643Z,83.8682
2024-05-09T07:38:22.512Z,83.7685
2024-05-09T07:39:22.670Z,83.9188
2024-05-09T07:40:36.644Z,84.4930
2024-05-09T07:41:37.486Z,84.3519
2024-05-09T07:42:37.541Z,84.5789
2024-05-09T07:43:50.276Z,85.2588
2024-05-09T07:44:51.277Z,84.8920
2024-05-09T07:46:48.234Z,84.4676
2024-05-09T07:48:14.696Z,83.9612
2024-05-09T07:49:45.087Z,84.1834
2024-05-09T07:53:08.679Z,83.3811
2024-05-09T07:53:33.658Z,83.2023
2024-05-09T07:53:47.320Z,83.6341
2024-05-09T07:54:49.818Z,84.1648
2024-05-09T07:55:51.072Z,84.0662
2024-05-09T07:56:51.221Z,83.3561
2024-05-09T07:57:51.609Z,83.5105
2024-05-09T07:58:52.172Z,83.9899
2024-05-09T07:59:52.294Z,83.6622
2024-05-09T08:00:52.379Z,84.2710
2024-05-09T08:01:52.464Z,83.4385
2024-05-09T08:02:52.730Z,82.6990
2024-05-09T08:03:53.090Z,82.8861
2024-05-09T08:04:53.295Z,82.5071
2024-05-09T08:05:54.453Z,82.2452
2024-05-09T08:06:54.568Z,81.8418
2024-05-09T08:07:55.583Z,82.1646
2024-05-09T08:09:11.116Z,81.6902
2024-05-09T08:10:15.471Z,82.5919
2024-05-09T08:11:18.933Z,82.3255
2024-05-09T08:12:30.847Z,82.0048
2024-05-09T08:13:42.585Z,81.3474
2024-05-09T08:14:56.198Z,81.9244
2024-05-09T08:16:07.972Z,81.6470
2024-05-09T08:17:19.800Z,81.4516
2024-05-09T08:18:31.883Z,80.8947
2024-05-09T08:19:32.006Z,81.5430
2024-05-09T08:20:43.727Z,81.7085
2024-05-09T08:21:55.540Z,81.3090
2024-05-09T08:23:07.336Z,81.5862
2024-05-09T08:24:19.128Z,82.1164
2024-05-09T08:25:30.916Z,82.4122
2024-05-09T08:26:42.682Z,82.4058
2024-05-09T08:27:54.452Z,82.2700
2024-05-09T08:28:54.505Z,82.4753
2024-05-09T08:31:17.970Z,81.5305
2024-05-09T08:32:29.938Z,82.3438
2024-05-09T08:33:31.236Z,83.1342
2024-05-09T08:34:31.216Z,82.9432
2024-05-09T08:35:31.293Z,82.4524
2024-05-09T08:36:43.163Z,82.2960
2024-05-09T08:37:43.278Z,82.2702
2024-05-09T08:38:43.386Z,82.5827
2024-05-09T08:39:43.369Z,82.7005
2024-05-09T08:40:43.433Z,82.3792
2024-05-09T08:41:44.359Z,82.6377
2024-05-09T08:42:56.166Z,82.1813
2024-05-09T08:44:07.884Z,82.0345
2024-05-09T08:45:19.617Z,82.1815
2024-05-09T08:46:31.361Z,82.2265
2024-05-09T08:47:31.787Z,81.5543
2024-05-09T08:48:33.095Z,80.8267
2024-05-09T08:49:33.263Z,80.9113
2024-05-09T08:50:38.535Z,80.4001
2024-05-09T08:51:41.058Z,80.8896
2024-05-09T08:52:41.093Z,80.2655
2024-05-09T08:53:41.052Z,80.6326
2024-05-09T08:54:52.846Z,80.5498
2024-05-09T08:56:04.670Z,80.7154
2024-05-09T08:57:16.523Z,80.6297
2024-05-09T08:58:16.797Z,80.2344
2024-05-09T08:59:16.831Z,79.9615
2024-05-09T09:00:35.948Z,80.2513
2024-05-09T09:01:34.398Z,81.0532
2024-05-09T09:02:34.694Z,80.3369
2024-05-09T09:03:34.815Z,79.0008
2024-05-09T09:04:34.955Z,78.6572
2024-05-09T09:05:46.750Z,79.1188
2024-05-09T09:06:59.767Z,80.1653
2024-05-09T09:08:00.294Z,80.0143
2024-05-09T09:09:12.302Z,80.0857
2024-05-09T09:10:29.884Z,80.9850
2024-05-09T09:11:31.614Z,80.3641
2024-05-09T09:12:31.620Z,81.1533
2024-05-09T09:13:43.437Z,81.0686
2024-05-09T09:14:55.183Z,80.7889
2024-05-09T09:16:07.045Z,80.0420
2024-05-09T09:17:07.003Z,79.9921
2024-05-09T09:18:19.272Z,79.6750
2024-05-09T09:19:19.432Z,79.7461
2024-05-09T09:20:26.269Z,80.1224
2024-05-09T09:21:25.286Z,79.8263
2024-05-09T09:22:38.094Z,79.5496
2024-05-09T09:23:38.037Z,79.1180
2024-05-09T09:24:49.895Z,80.2632
2024-05-09T09:26:01.751Z,79.6635
2024-05-09T09:27:13.606Z,78.7388
2024-05-09T09:28:25.427Z,79.2350
2024-05-09T09:29:37.211Z,78.4792
2024-05-09T09:30:48.973Z,78.7945
2024-05-09T09:32:00.701Z,78.3561
2024-05-09T09:33:12.550Z,78.2981
2024-05-09T09:34:24.642Z,77.9217
2024-05-09T09:35:24.556Z,77.5766
2024-05-09T09:36:36.292Z,77.3538
2024-05-09T09:37:47.984Z,76.9774
2024-05-09T09:38:59.758Z,77.3627
2024-05-09T09:40:13.311Z,77.5514
2024-05-09T09:41:13.609Z,77.4292
2024-05-09T09:42:25.299Z,77.6272
2024-05-09T09:43:37.110Z,78.2935
2024-05-09T09:44:57.794Z,77.8495
2024-05-09T09:45:54.712Z,78.3850
2024-05-09T09:47:07.120Z,78.3411
2024-05-09T09:48:07.036Z,77.7880
2024-05-09T09:49:19.826Z,77.9789
2024-05-09T09:50:34.572Z,78.6409
2024-05-09T09:51:35.447Z,77.6291
2024-05-09T09:52:35.395Z,77.4429
2024-05-09T09:53:47.208Z,76.9106
2024-05-09T09:54:58.994Z,76.9006
2024-05-09T09:55:58.975Z,76.4300
2024-05-09T09:57:10.636Z,76.8490
2024-05-09T09:58:22.395Z,75.7059
2024-05-09T09:59:34.177Z,75.3638
2024-05-09T10:00:46.328Z,75.6105
2024-05-09T10:01:46.338Z,75.5706
2024-05-09T10:02:58.084Z,75.7338
2024-05-09T10:04:09.812Z,75.0350
2024-05-09T10:05:21.754Z,74.2491
2024-05-09T10:06:21.670Z,73.3980
2024-05-09T10:07:22.508Z,73.5137
2024-05-09T10:08:34.164Z,72.6462
2024-05-09T10:09:45.895Z,73.0198
2024-05-09T10:10:58.668Z,72.9343
2024-05-09T10:12:10.402Z,71.8611
2024-05-09T10:13:22.054Z,72.3980
2024-05-09T10:14:33.702Z,72.1218
2024-05-09T10:15:34.580Z,72.4907
2024-05-09T10:16:46.198Z,72.3835
2024-05-09T10:17:57.908Z,71.9839
2024-05-09T10:19:09.671Z,72.8560
2024-05-09T10:20:27.715Z,72.9051
2024-05-09T10:21:27.923Z,70.4836
2024-05-09T10:22:39.529Z,70.5508
2024-05-09T10:23:51.209Z,71.1246
2024-05-09T10:25:04.821Z,70.2627
2024-05-09T10:26:05.922Z,70.5776
2024-05-09T10:27:06.127Z,70.7353
2024-05-09T10:28:17.788Z,69.9621
2024-05-09T10:29:18.797Z,69.2476
2024-05-09T10:30:35.801Z,69.5644
2024-05-09T10:31:36.246Z,69.5625
2024-05-09T10:32:47.959Z,69.3818
2024-05-09T10:33:59.995Z,70.3334
2024-05-09T10:35:00.082Z,69.8570
2024-05-09T10:36:00.009Z,70.4021
2024-05-09T10:37:11.623Z,70.3092
2024-05-09T10:38:23.202Z,71.1493
2024-05-09T10:39:34.940Z,70.5414
2024-05-09T10:40:46.526Z,69.8077
2024-05-09T10:41:58.189Z,70.4196
2024-05-09T10:43:09.838Z,71.6490
2024-05-09T10:44:21.359Z,71.3596
2024-05-09T10:45:32.957Z,71.1821
2024-05-09T10:46:44.553Z,70.4997
2024-05-09T10:47:56.377Z,71.9028
2024-05-09T10:49:08.186Z,72.3173
2024-05-09T10:50:25.552Z,72.5930
2024-05-09T10:51:25.773Z,73.3486
2024-05-09T10:52:37.352Z,72.7339
2024-05-09T10:53:48.954Z,72.9572
2024-05-09T10:55:01.694Z,72.8707
2024-05-09T10:56:04.041Z,72.3928
2024-05-09T10:57:15.591Z,72.0846
2024-05-09T10:58:27.238Z,71.4959
2024-05-09T10:59:38.950Z,71.5674
2024-05-09T11:00:50.582Z,71.0246
2024-05-09T11:02:02.415Z,71.1162
2024-05-09T11:03:14.043Z,70.4321
2024-05-09T11:04:25.714Z,69.9463
2024-05-09T11:05:37.563Z,70.7172
2024-05-09T11:06:37.498Z,70.1683
2024-05-09T11:07:37.447Z,69.9202
2024-05-09T11:08:49.055Z,69.5862
2024-05-09T11:10:00.801Z,70.0437
2024-05-09T11:11:12.463Z,66.8785
2024-05-09T11:12:24.987Z,67.5738
2024-05-09T11:13:24.984Z,67.9335
2024-05-09T11:14:36.570Z,66.4383
2024-05-09T11:15:48.213Z,67.0832
2024-05-09T11:16:59.970Z,67.6425
2024-05-09T11:18:11.792Z,67.3729
2024-05-09T11:19:11.787Z,68.1160
2024-05-09T11:20:29.444Z,67.3271
2024-05-09T11:21:29.312Z,67.6432
2024-05-09T11:22:41.627Z,67.5209
2024-05-09T11:23:41.834Z,65.6419
2024-05-09T11:24:41.703Z,65.7557
2024-05-09T11:25:53.390Z,65.5817
2024-05-09T11:27:05.031Z,64.6726
2024-05-09T11:28:16.833Z,64.5256
2024-05-09T11:29:19.236Z,64.4035
2024-05-09T11:30:26.559Z,65.5503
2024-05-09T11:31:25.450Z,65.8515
2024-05-09T11:32:25.528Z,66.0664
2024-05-09T11:33:25.492Z,67.6997
2024-05-09T11:34:37.095Z,66.9830
2024-05-09T11:35:48.713Z,67.1964
2024-05-09T11:37:00.433Z,67.0286
2024-05-09T11:38:12.088Z,67.3200
2024-05-09T11:39:23.907Z,68.1618
2024-05-09T11:40:25.998Z,67.9182
2024-05-09T11:41:29.323Z,67.0311
2024-05-09T11:42:40.873Z,66.8106
2024-05-09T11:43:52.617Z,66.8625
2024-05-09T11:45:04.147Z,67.8472
2024-05-09T11:46:15.903Z,65.7730
2024-05-09T11:47:27.588Z,66.2242
2024-05-09T11:48:39.380Z,66.9304
2024-05-09T11:49:39.416Z,66.9520
2024-05-09T11:50:51.064Z,67.0329
2024-05-09T11:52:02.710Z,67.3419
2024-05-09T11:53:14.265Z,67.4856
2024-05-09T11:54:25.821Z,67.3538
2024-05-09T11:55:37.334Z,68.6549
2024-05-09T11:56:48.986Z,68.7602
2024-05-09T11:58:00.611Z,68.5000
2024-05-09T11:59:12.271Z,69.1491
2024-05-09T12:00:33.564Z,69.2256
2024-05-09T12:01:29.938Z,68.4471
2024-05-09T12:02:29.909Z,68.8649
2024-05-09T12:03:41.682Z,68.6786
2024-05-09T12:04:53.424Z,69.6101
2024-05-09T12:05:53.325Z,69.5595
2024-05-09T12:07:05.043Z,68.3655
2024-05-09T12:08:16.684Z,67.9021
2024-05-09T12:09:28.395Z,68.3447
2024-05-09T12:10:40.127Z,67.7119
2024-05-09T12:11:51.919Z,68.0474
2024-05-09T12:13:05.549Z,66.6952
2024-05-09T12:14:06.909Z,66.7329
2024-05-09T12:15:18.578Z,66.3447
2024-05-09T12:16:30.337Z,67.6313
2024-05-09T12:17:31.228Z,67.1531
2024-05-09T12:18:31.178Z,66.4350
2024-05-09T12:19:42.831Z,66.7071
2024-05-09T12:20:54.622Z,67.9428
2024-05-09T12:22:06.286Z,67.7292
2024-05-09T12:23:17.883Z,65.5044
2024-05-09T12:24:29.508Z,66.4841
2024-05-09T12:25:41.237Z,66.0861
2024-05-09T12:26:52.945Z,65.9439
2024-05-09T12:28:04.647Z,65.3173
2024-05-09T12:29:16.280Z,65.7387
2024-05-09T12:30:35.760Z,65.3958
2024-05-09T12:31:34.349Z,65.3468
2024-05-09T12:32:46.531Z,66.2366
2024-05-09T12:33:46.541Z,64.9879
2024-05-09T12:34:46.427Z,63.4104
2024-05-09T12:35:58.158Z,62.6350
2024-05-09T12:37:10.176Z,63.2003
2024-05-09T12:38:10.127Z,62.7124
2024-05-09T12:39:21.784Z,63.1601
2024-05-09T12:40:36.971Z,63.7598
2024-05-09T12:41:39.271Z,64.2554
2024-05-09T12:42:40.002Z,63.1354
2024-05-09T12:43:51.569Z,62.3000
2024-05-09T12:45:03.199Z,63.5068
2024-05-09T12:46:14.923Z,63.2598
2024-05-09T12:47:15.192Z,64.0876
2024-05-09T12:48:27.156Z,62.6981
2024-05-09T12:49:27.164Z,64.1804
2024-05-09T12:50:32.214Z,62.6932
2024-05-09T12:51:33.327Z,62.9508
2024-05-09T12:52:45.096Z,62.1029
2024-05-09T12:53:45.942Z,61.4850
2024-05-09T12:54:57.703Z,61.7683
2024-05-09T12:56:01.843Z,61.6452
2024-05-09T12:57:03.485Z,62.3398
2024-05-09T12:58:15.485Z,62.3794